Time;durP1;ratioP1;P1;durP2;ratioP2;P2;SDS_P1;SDS_P2;PMS_P1;PMS_P2;Temp;Humidity;BMP_temperature;BMP_pressure;BME280_temperature;BME280_humidity;BME280_pressure;Samples;Min_cycle;Max_cycle;Signal;HPM_P1;HPM_P2
2021/10/06 00:00:41;;;;;;;16.27;5.30;;;11.60;99.90;;;;;;6194830;23;20487;-86
2021/10/06 00:03:09;;;;;;;5.43;3.77;;;11.60;99.90;;;;;;6195297;23;20444;-86
2021/10/06 00:05:38;;;;;;;8.80;4.40;;;11.60;99.90;;;;;;6186157;23;20413;-86
2021/10/06 00:08:10;;;;;;;6.40;3.93;;;11.50;99.90;;;;;;6195800;23;20409;-84
2021/10/06 00:10:39;;;;;;;13.50;4.90;;;11.40;99.90;;;;;;6195416;23;20409;-85
2021/10/06 00:13:12;;;;;;;6.27;4.40;;;11.40;99.90;;;;;;6195206;23;20456;-85
2021/10/06 00:15:41;;;;;;;9.63;4.90;;;11.30;99.90;;;;;;6184687;23;20435;-86
2021/10/06 00:18:26;;;;;;;9.63;4.90;;;11.10;99.90;;;;;;6185508;23;20398;-86
2021/10/06 00:20:58;;;;;;;12.67;6.13;;;11.00;99.90;;;;;;6195726;23;20484;-84
2021/10/06 00:23:25;;;;;;;8.03;6.43;;;10.90;99.90;;;;;;6195523;23;20437;-85
2021/10/06 00:25:54;;;;;;;7.93;6.80;;;10.80;99.90;;;;;;6185222;23;20406;-86
2021/10/06 00:28:22;;;;;;;10.43;8.17;;;10.80;99.90;;;;;;6195752;23;20425;-86
2021/10/06 00:30:49;;;;;;;9.03;8.23;;;10.90;99.90;;;;;;6183994;23;20409;-86
2021/10/06 00:33:18;;;;;;;10.10;9.13;;;10.80;99.90;;;;;;6195499;23;20785;-85
2021/10/06 00:35:47;;;;;;;10.77;9.87;;;10.90;99.90;;;;;;6195977;23;20445;-86
2021/10/06 00:38:30;;;;;;;11.53;10.70;;;10.80;99.90;;;;;;6195327;23;20409;-85
2021/10/06 00:40:58;;;;;;;12.93;11.70;;;10.80;99.90;;;;;;6195371;23;20443;-86
2021/10/06 00:46:19;;;;;;;;;;;;;;;;;;;;;
2021/10/06 00:48:48;;;;;;;17.30;16.00;;;10.70;99.90;;;;;;6192919;23;20412;-86
2021/10/06 00:51:16;;;;;;;20.70;19.60;;;10.60;99.90;;;;;;6185541;23;20728;-85
2021/10/06 00:53:45;;;;;;;21.23;19.80;;;10.60;99.90;;;;;;6195867;23;20424;-86
2021/10/06 00:56:14;;;;;;;21.30;19.30;;;10.60;99.90;;;;;;6195557;23;20405;-85
2021/10/06 00:58:56;;;;;;;18.63;17.10;;;10.70;99.90;;;;;;6195071;23;20501;-86
2021/10/06 01:01:27;;;;;;;18.70;16.77;;;10.70;99.90;;;;;;6195323;23;20803;-86
2021/10/06 01:04:00;;;;;;;13.33;12.33;;;10.70;99.90;;;;;;6195037;23;20448;-86
2021/10/06 01:06:39;;;;;;;20.17;15.30;;;10.60;99.90;;;;;;6185592;23;20405;-85
2021/10/06 01:09:13;;;;;;;14.70;13.47;;;10.60;99.90;;;;;;6196777;23;20416;-87
2021/10/06 01:11:52;;;;;;;;;;;;;;;;;;;;;
2021/10/06 01:14:25;;;;;;;11.87;10.87;;;10.80;99.90;;;;;;6159793;23;20408;-86
2021/10/06 01:17:03;;;;;;;13.83;12.50;;;10.70;99.90;;;;;;6197285;23;20770;-84
2021/10/06 01:19:33;;;;;;;13.67;12.27;;;10.60;99.90;;;;;;6187362;23;20943;-87
2021/10/06 01:22:03;;;;;;;15.93;14.37;;;10.60;99.90;;;;;;6196864;23;20495;-85
2021/10/06 01:24:34;;;;;;;17.27;15.17;;;10.60;99.90;;;;;;6187189;23;20452;-86
2021/10/06 01:27:03;;;;;;;17.70;15.13;;;10.70;99.90;;;;;;6197393;23;20919;-86
2021/10/06 01:29:39;;;;;;;18.70;16.93;;;10.60;99.90;;;;;;6185719;23;20409;-84
2021/10/06 01:32:14;;;;;;;16.53;15.17;;;10.70;99.90;;;;;;6197317;23;20462;-85
2021/10/06 01:35:02;;;;;;;16.20;14.60;;;10.50;99.90;;;;;;6197158;23;20466;-85
2021/10/06 01:37:53;;;;;;;15.80;14.70;;;10.50;99.90;;;;;;6197354;23;20413;-86
2021/10/06 01:40:56;;;;;;;;;;;;;;;;;;;;;
2021/10/06 01:43:30;;;;;;;12.40;11.50;;;10.70;99.90;;;;;;6196887;23;20454;-87
2021/10/06 01:46:12;;;;;;;14.27;12.03;;;10.80;99.90;;;;;;6185723;23;20484;-86
2021/10/06 01:48:52;;;;;;;16.47;12.80;;;10.60;99.90;;;;;;6196931;23;20405;-86
2021/10/06 01:51:22;;;;;;;12.47;11.47;;;10.60;99.90;;;;;;6187189;23;20401;-86
2021/10/06 01:54:12;;;;;;;11.93;10.60;;;10.60;99.90;;;;;;6197212;23;20425;-87
2021/10/06 01:56:45;;;;;;;11.10;10.00;;;10.70;99.90;;;;;;6196778;23;20416;-85
2021/10/06 02:02:26;;;;;;;10.80;7.13;;;10.80;99.90;;;;;;6166291;23;20453;-86
2021/10/06 02:05:33;;;;;;;;;;;;;;;;;;;;;
2021/10/06 02:08:27;;;;;;;;;;;;;;;;;;;;;
2021/10/06 02:17:05;;;;;;;12.77;6.90;;;10.90;99.90;;;;;;6161235;23;20400;-87
2021/10/06 02:19:55;;;;;;;8.53;6.70;;;11.00;99.90;;;;;;6185900;23;20480;-85
2021/10/06 02:22:50;;;;;;;;;;;;;;;;;;;;;
2021/10/06 02:25:36;;;;;;;9.10;6.73;;;10.90;99.90;;;;;;6120453;23;20408;-85
2021/10/06 02:31:33;;;;;;;7.07;6.23;;;11.00;99.90;;;;;;6193959;23;20464;-86
2021/10/06 02:34:36;;;;;;;12.30;6.33;;;11.10;99.90;;;;;;6196226;23;20421;-85
2021/10/06 02:37:10;;;;;;;12.50;5.90;;;11.10;99.90;;;;;;6047198;23;20925;-85
2021/10/06 02:40:04;;;;;;;11.60;5.50;;;11.30;99.90;;;;;;6143254;23;20412;-85
2021/10/06 02:42:48;;;;;;;10.83;5.33;;;11.30;99.90;;;;;;6177674;23;20413;-86
2021/10/06 02:45:48;;;;;;;7.33;5.17;;;11.10;99.90;;;;;;6195420;23;20499;-85
2021/10/06 02:48:25;;;;;;;6.73;5.33;;;10.90;99.90;;;;;;6196356;23;20402;-85
2021/10/06 02:51:11;;;;;;;13.07;6.70;;;11.00;99.90;;;;;;6196481;23;20408;-85
2021/10/06 02:53:51;;;;;;;16.50;6.90;;;10.90;99.90;;;;;;6196175;23;20933;-85
2021/10/06 02:57:05;;;;;;;;;;;;;;;;;;;;;
2021/10/06 03:03:01;;;;;;;;;;;;;;;;;;;;;
2021/10/06 03:06:16;;;;;;;;;;;;;;;;;;;;;
2021/10/06 03:09:16;;;;;;;;;;;;;;;;;;;;;
2021/10/06 03:32:03;;;;;;;9.43;4.50;;;11.00;99.90;;;;;;6014260;23;20414;-85
2021/10/06 03:43:57;;;;;;;14.13;4.60;;;11.20;98.10;;;;;;6216415;23;20808;-86
2021/10/06 03:50:05;;;;;;;;;;;;;;;;;;;;;
2021/10/06 03:52:32;;;;;;;6.53;4.00;;;11.00;98.30;;;;;;6195878;23;20425;-85
2021/10/06 03:58:35;;;;;;;15.73;5.10;;;11.00;98.50;;;;;;6175636;23;20417;-87
2021/10/06 04:01:09;;;;;;;15.43;5.00;;;10.80;98.90;;;;;;6182221;23;20413;-88
2021/10/06 04:13:20;;;;;;;12.03;4.53;;;11.10;98.10;;;;;;6041539;23;20454;-81
2021/10/06 04:15:53;;;;;;;9.13;4.50;;;11.10;97.50;;;;;;6074924;23;20499;-87
2021/10/06 04:18:20;;;;;;;7.73;3.90;;;11.20;96.90;;;;;;6165863;23;20413;-84
2021/10/06 04:21:23;;;;;;;9.47;3.80;;;11.40;96.50;;;;;;6165710;23;20469;-86
2021/10/06 04:29:49;;;;;;;12.13;3.50;;;11.50;93.80;;;;;;6152655;23;20437;-87
2021/10/06 04:32:15;;;;;;;7.50;3.63;;;11.60;93.60;;;;;;6165295;23;20980;-81
2021/10/06 04:34:44;;;;;;;10.40;4.53;;;11.60;93.60;;;;;;6155986;23;20493;-83
2021/10/06 04:37:22;;;;;;;10.80;3.70;;;11.60;93.10;;;;;;6155627;23;20484;-87
2021/10/06 04:39:49;;;;;;;6.90;3.00;;;11.70;92.30;;;;;;6157081;23;20405;-84
2021/10/06 04:42:25;;;;;;;5.23;2.60;;;11.60;92.60;;;;;;6155659;23;20438;-85
2021/10/06 04:45:04;;;;;;;7.20;3.10;;;11.70;92.00;;;;;;6154602;23;20406;-86
2021/10/06 04:47:34;;;;;;;9.07;3.70;;;11.60;92.60;;;;;;6155697;23;20398;-85
2021/10/06 04:50:27;;;;;;;13.27;3.93;;;11.60;92.80;;;;;;6165451;23;20413;-85
2021/10/06 04:53:01;;;;;;;7.60;3.80;;;11.70;92.50;;;;;;6155845;23;20438;-86
2021/10/06 04:55:48;;;;;;;8.67;3.20;;;11.60;92.60;;;;;;6165504;23;20424;-86
2021/10/06 04:58:16;;;;;;;8.87;2.70;;;11.50;92.20;;;;;;6165231;23;20883;-85
2021/10/06 05:00:48;;;;;;;5.53;3.07;;;11.50;91.60;;;;;;6164272;23;20425;-84
2021/10/06 05:03:31;;;;;;;15.40;4.07;;;11.40;91.90;;;;;;6165682;23;20414;-85
2021/10/06 05:06:30;;;;;;;6.33;3.00;;;11.40;91.30;;;;;;6165682;23;20416;-86
2021/10/06 05:09:15;;;;;;;12.23;3.87;;;11.30;91.50;;;;;;6066464;23;20429;-85
2021/10/06 05:11:42;;;;;;;14.10;2.97;;;11.50;91.60;;;;;;6186122;23;20975;-85
2021/10/06 05:17:20;;;;;;;8.93;2.87;;;11.50;91.20;;;;;;6178370;23;20726;-87
2021/10/06 05:22:57;;;;;;;9.30;2.70;;;11.50;91.60;;;;;;6194160;23;20496;-87
2021/10/06 05:25:28;;;;;;;7.80;3.60;;;11.50;91.60;;;;;;6184729;23;20412;-86
2021/10/06 05:28:36;;;;;;;9.23;3.93;;;11.50;91.60;;;;;;6185503;23;20407;-87
2021/10/06 05:31:14;;;;;;;9.40;2.47;;;11.40;91.30;;;;;;6160554;23;20441;-90
2021/10/06 05:33:46;;;;;;;9.53;3.20;;;11.60;91.10;;;;;;6195162;23;20526;-86
2021/10/06 05:50:55;;;;;;;8.20;3.00;;;11.70;88.40;;;;;;6014043;23;20421;-87
2021/10/06 05:56:45;;;;;;;8.80;2.90;;;11.80;86.30;;;;;;6009585;23;20743;-85
2021/10/06 06:03:28;;;;;;;;;;;;;;;;;;;;;
2021/10/06 06:06:10;;;;;;;8.00;3.13;;;11.90;82.60;;;;;;6019263;23;20742;-85
2021/10/06 06:15:37;;;;;;;16.20;3.47;;;12.00;82.80;;;;;;6086249;23;20426;-91
2021/10/06 06:18:42;;;;;;;6.67;2.50;;;12.00;84.90;;;;;;6095502;23;20415;-86
2021/10/06 06:21:22;;;;;;;8.80;3.20;;;11.90;84.80;;;;;;6076250;23;20476;-87
2021/10/06 06:24:33;;;;;;;;;;;;;;;;;;;;;
2021/10/06 06:27:03;;;;;;;15.67;4.47;;;11.70;90.00;;;;;;6158650;23;20424;-85
2021/10/06 06:29:35;;;;;;;11.23;4.97;;;11.40;99.90;;;;;;6185752;23;20944;-86
2021/10/06 06:32:11;;;;;;;9.80;6.50;;;11.20;99.90;;;;;;6186587;23;20404;-87
2021/10/06 06:35:14;;;;;;;;;;;;;;;;;;;;;
2021/10/06 06:37:44;;;;;;;19.43;7.80;;;11.00;99.90;;;;;;6186210;23;20409;-88
2021/10/06 06:40:12;;;;;;;16.57;11.90;;;11.00;99.90;;;;;;6196432;23;20410;-86
2021/10/06 06:42:39;;;;;;;16.10;10.30;;;11.00;99.90;;;;;;6196291;23;20532;-90
2021/10/06 06:45:07;;;;;;;15.97;14.70;;;11.00;99.90;;;;;;6185417;23;20409;-85
2021/10/06 06:51:16;;;;;;;;;;;;;;;;;;;;;
2021/10/06 06:56:39;;;;;;;34.63;32.43;;;10.80;99.90;;;;;;6196347;23;20401;-88
2021/10/06 06:59:09;;;;;;;33.57;31.57;;;10.70;99.90;;;;;;6195065;23;20402;-87
2021/10/06 07:01:38;;;;;;;39.70;37.70;;;10.70;99.90;;;;;;6196461;23;20464;-87
2021/10/06 07:04:05;;;;;;;53.33;51.03;;;10.60;99.90;;;;;;6186405;23;20472;-89
2021/10/06 07:06:45;;;;;;;47.13;44.43;;;10.40;99.90;;;;;;6196318;23;20409;-88
2021/10/06 07:12:27;;;;;;;76.47;72.23;;;10.50;99.90;;;;;;6176022;23;20421;-88
2021/10/06 07:15:04;;;;;;;75.73;72.50;;;10.50;99.90;;;;;;6195356;23;20414;-90
2021/10/06 07:24:30;;;;;;;119.33;114.47;;;10.60;99.90;;;;;;5799412;24;20421;-91
2021/10/06 07:34:02;;;;;;;40.50;38.57;;;11.00;99.90;;;;;;5940763;24;20520;-89
2021/10/06 07:39:55;;;;;;;25.47;23.90;;;11.30;99.90;;;;;;6183907;23;20499;-91
2021/10/06 07:46:42;;;;;;;15.00;11.83;;;11.40;99.90;;;;;;5879603;23;20890;-90
2021/10/06 07:49:09;;;;;;;12.10;10.90;;;11.40;99.90;;;;;;6192926;23;20421;-90
2021/10/06 07:51:41;;;;;;;12.40;11.00;;;11.60;99.90;;;;;;6197547;23;20889;-90
2021/10/06 07:54:15;;;;;;;12.27;11.13;;;11.50;99.90;;;;;;6196533;23;20487;-88
2021/10/06 07:56:55;;;;;;;;;;;;;;;;;;;;;
2021/10/06 07:59:30;;;;;;;13.90;12.87;;;11.50;99.90;;;;;;6184310;23;20456;-90
2021/10/06 08:01:59;;;;;;;11.47;10.30;;;11.50;99.90;;;;;;6186084;23;20480;-92
2021/10/06 08:04:41;;;;;;;11.33;10.43;;;11.50;99.90;;;;;;6196519;23;20496;-87
2021/10/06 08:07:08;;;;;;;15.10;13.90;;;11.40;99.90;;;;;;6196193;23;20405;-87
2021/10/06 08:09:35;;;;;;;12.40;11.43;;;11.50;99.90;;;;;;6185899;23;20429;-89
2021/10/06 08:12:06;;;;;;;13.03;11.80;;;11.60;99.90;;;;;;6186066;23;20401;-81
2021/10/06 08:14:55;;;;;;;;;;;;;;;;;;;;;
2021/10/06 08:17:22;;;;;;;14.73;8.67;;;11.70;99.90;;;;;;6184962;23;20408;-81
2021/10/06 08:19:49;;;;;;;11.67;6.67;;;11.80;99.90;;;;;;6185775;23;20484;-86
2021/10/06 08:22:19;;;;;;;6.30;5.70;;;12.00;99.90;;;;;;6185785;23;20438;-88
2021/10/06 08:24:46;;;;;;;12.77;5.23;;;12.20;97.80;;;;;;6195691;23;20441;-88
2021/10/06 08:27:17;;;;;;;8.00;3.77;;;12.40;98.10;;;;;;6195807;23;20779;-86
2021/10/06 08:29:44;;;;;;;11.33;4.87;;;12.60;93.50;;;;;;6194278;23;20463;-87
2021/10/06 08:32:10;;;;;;;6.53;4.10;;;12.90;97.50;;;;;;6185776;23;20736;-86
2021/10/06 08:34:37;;;;;;;6.27;3.10;;;13.20;91.70;;;;;;6185646;23;20463;-87
2021/10/06 08:37:05;;;;;;;9.47;4.47;;;13.40;90.50;;;;;;6195561;23;20452;-88
2021/10/06 08:39:35;;;;;;;8.50;3.90;;;13.30;88.60;;;;;;6195705;23;20411;-88
2021/10/06 08:42:04;;;;;;;8.30;4.87;;;13.40;85.10;;;;;;6195602;23;20441;-88
2021/10/06 08:44:33;;;;;;;10.40;3.50;;;13.60;88.60;;;;;;6184203;23;20409;-86
2021/10/06 08:47:00;;;;;;;7.50;2.80;;;13.60;82.10;;;;;;6195578;23;20783;-86
2021/10/06 08:49:27;;;;;;;8.40;2.10;;;13.50;80.20;;;;;;6185616;23;20499;-82
2021/10/06 08:51:54;;;;;;;7.17;2.23;;;13.30;77.20;;;;;;6185239;23;20404;-84
2021/10/06 08:54:23;;;;;;;5.10;2.40;;;13.10;78.40;;;;;;6185504;23;20477;-83
2021/10/06 08:56:51;;;;;;;4.80;1.93;;;12.90;79.60;;;;;;6185595;23;20407;-81
2021/10/06 08:59:18;;;;;;;8.50;2.70;;;12.80;78.20;;;;;;6193525;23;21289;-82
2021/10/06 09:01:47;;;;;;;13.13;2.60;;;12.70;77.10;;;;;;6185565;23;20725;-84
2021/10/06 09:04:14;;;;;;;6.60;2.53;;;12.90;78.60;;;;;;6185495;23;20401;-83
2021/10/06 09:06:43;;;;;;;4.90;2.13;;;13.10;77.90;;;;;;6185540;23;20437;-85
2021/10/06 09:09:18;;;;;;;6.80;2.53;;;13.10;79.70;;;;;;6195370;23;20995;-83
2021/10/06 09:11:47;;;;;;;11.20;2.30;;;13.10;77.20;;;;;;6195164;23;20431;-85
2021/10/06 09:14:17;;;;;;;6.10;2.33;;;13.10;77.20;;;;;;6193933;23;20439;-86
2021/10/06 09:16:46;;;;;;;6.07;2.00;;;13.00;76.70;;;;;;6185480;23;20441;-85
2021/10/06 09:19:13;;;;;;;6.07;1.90;;;13.20;75.80;;;;;;6195547;23;20402;-85
2021/10/06 09:22:01;;;;;;;4.10;1.87;;;13.20;74.50;;;;;;6195425;23;20405;-84
2021/10/06 09:24:51;;;;;;;3.23;1.47;;;13.30;74.50;;;;;;6195479;23;20397;-85
2021/10/06 09:27:20;;;;;;;15.53;2.60;;;13.50;72.20;;;;;;6185338;23;20479;-82
2021/10/06 09:29:55;;;;;;;4.50;2.00;;;13.70;72.40;;;;;;6194961;23;20406;-82
2021/10/06 09:32:25;;;;;;;6.00;2.23;;;13.50;78.70;;;;;;6187498;23;20407;-84
2021/10/06 09:35:05;;;;;;;7.57;2.90;;;12.80;87.20;;;;;;6187385;23;20480;-84
2021/10/06 09:37:32;;;;;;;4.80;3.70;;;12.40;95.10;;;;;;6187439;23;20424;-83
2021/10/06 09:39:59;;;;;;;6.23;4.80;;;12.10;99.90;;;;;;6187499;23;20428;-84
2021/10/06 09:43:00;;;;;;;8.50;6.37;;;11.90;99.90;;;;;;6197399;23;20441;-87
2021/10/06 09:46:13;;;;;;;11.97;11.07;;;11.80;99.90;;;;;;6191986;23;20447;-85
2021/10/06 09:58:16;;;;;;;29.63;27.90;;;11.80;99.90;;;;;;5918302;23;20413;-78
2021/10/06 10:07:55;;;;;;;18.00;16.80;;;12.20;99.90;;;;;;5931905;24;20422;-85
2021/10/06 10:13:40;;;;;;;11.03;10.13;;;12.50;99.90;;;;;;6003828;23;20604;-86
2021/10/06 10:25:59;;;;;;;10.97;9.70;;;12.80;99.90;;;;;;6014350;23;20453;-83
2021/10/06 10:29:22;;;;;;;;;;;;;;;;;;;;;
2021/10/06 10:32:07;;;;;;;9.33;8.40;;;13.00;99.90;;;;;;5977348;23;20427;-84
2021/10/06 10:35:04;;;;;;;9.77;8.70;;;13.10;99.90;;;;;;6115180;23;20440;-83
2021/10/06 10:38:19;;;;;;;9.27;8.20;;;13.10;99.90;;;;;;6162997;23;20888;-84
2021/10/06 10:41:04;;;;;;;9.17;8.43;;;12.90;99.90;;;;;;6184252;23;20413;-86
2021/10/06 10:44:05;;;;;;;;;;;;;;;;;;;;;
2021/10/06 10:46:57;;;;;;;9.97;9.27;;;12.90;99.90;;;;;;6195608;23;20398;-87
2021/10/06 10:49:43;;;;;;;13.30;12.00;;;12.90;99.90;;;;;;6195450;23;20924;-87
2021/10/06 10:52:46;;;;;;;24.97;23.27;;;12.80;99.90;;;;;;6196859;23;20705;-89
2021/10/06 10:55:16;;;;;;;19.90;18.80;;;12.90;99.90;;;;;;6176264;23;20444;-90
2021/10/06 10:57:52;;;;;;;19.40;18.23;;;12.80;99.90;;;;;;6196350;23;20778;-91
2021/10/06 11:00:50;;;;;;;28.67;27.17;;;12.70;99.90;;;;;;6195792;23;20419;-87
2021/10/06 11:10:10;;;;;;;;;;;;;;;;;;;;;
2021/10/06 11:12:55;;;;;;;42.47;40.77;;;12.80;99.90;;;;;;5097480;28;20445;-91
2021/10/06 11:15:37;;;;;;;39.17;36.73;;;12.80;99.90;;;;;;5109146;28;20527;-89
2021/10/06 11:22:16;;;;;;;28.93;27.67;;;12.90;99.90;;;;;;5109685;28;20454;-87
2021/10/06 11:25:17;;;;;;;22.77;21.60;;;13.00;99.90;;;;;;5103667;28;20820;-91
2021/10/06 11:34:25;;;;;;;18.23;17.23;;;12.80;99.90;;;;;;4985897;28;20582;-89
2021/10/06 11:37:15;;;;;;;25.50;24.10;;;12.60;99.90;;;;;;5093060;28;20870;-89
2021/10/06 11:39:43;;;;;;;14.20;13.30;;;12.70;99.90;;;;;;5108949;28;20502;-87
2021/10/06 11:45:57;;;;;;;11.10;10.30;;;12.70;99.90;;;;;;4993401;28;20454;-88
2021/10/06 11:51:59;;;;;;;10.90;10.20;;;13.00;99.90;;;;;;5106930;28;21016;-86
2021/10/06 11:54:33;;;;;;;12.53;11.73;;;13.10;99.90;;;;;;5109166;28;21030;-86
2021/10/06 11:57:04;;;;;;;11.03;10.33;;;13.20;99.90;;;;;;5108699;28;21126;-86
2021/10/06 11:59:33;;;;;;;10.17;9.37;;;13.50;99.90;;;;;;5107463;28;20492;-87
2021/10/06 12:02:10;;;;;;;7.67;5.97;;;13.80;97.10;;;;;;5108194;28;20513;-87
2021/10/06 12:04:38;;;;;;;5.40;4.90;;;14.00;92.60;;;;;;5108886;28;20939;-87
2021/10/06 12:07:08;;;;;;;6.83;6.03;;;14.40;92.80;;;;;;5108495;28;20493;-87
2021/10/06 12:09:46;;;;;;;4.83;4.10;;;14.50;91.40;;;;;;5108673;28;20449;-87
2021/10/06 12:12:31;;;;;;;4.77;3.67;;;14.70;91.50;;;;;;5108595;28;20456;-87
2021/10/06 12:15:02;;;;;;;5.77;3.60;;;14.30;82.70;;;;;;5107221;28;20500;-86
2021/10/06 12:17:34;;;;;;;7.90;4.87;;;14.60;85.90;;;;;;5108689;28;20445;-87
2021/10/06 12:20:07;;;;;;;6.70;4.53;;;14.80;89.00;;;;;;5097974;28;20458;-86
2021/10/06 12:22:43;;;;;;;6.07;3.00;;;14.70;83.40;;;;;;5094792;28;20950;-88
2021/10/06 12:25:12;;;;;;;3.90;2.33;;;14.20;83.70;;;;;;5095077;28;20462;-87
2021/10/06 12:27:42;;;;;;;8.40;3.87;;;14.00;83.90;;;;;;5094190;28;20520;-87
2021/10/06 12:30:15;;;;;;;5.07;4.23;;;14.00;87.10;;;;;;5093746;28;20454;-89
2021/10/06 12:33:03;;;;;;;5.50;4.70;;;13.90;89.40;;;;;;5094689;28;20461;-89
2021/10/06 12:36:27;;;;;;;8.40;4.63;;;13.80;90.60;;;;;;5094806;28;20461;-88
2021/10/06 12:39:33;;;;;;;5.53;5.00;;;13.80;91.00;;;;;;4877399;29;20579;-87
2021/10/06 12:42:09;;;;;;;4.60;3.43;;;13.90;90.10;;;;;;4954150;29;20833;-87
2021/10/06 12:44:47;;;;;;;6.17;3.60;;;14.00;88.30;;;;;;5074077;28;20489;-87
2021/10/06 12:47:21;;;;;;;4.70;3.70;;;14.10;85.20;;;;;;5075396;28;20454;-89
2021/10/06 12:49:55;;;;;;;4.80;3.37;;;14.20;86.90;;;;;;5076259;28;20485;-92
2021/10/06 12:52:24;;;;;;;9.70;4.50;;;14.10;85.40;;;;;;5075387;28;20575;-90
2021/10/06 12:55:09;;;;;;;6.83;4.27;;;14.10;85.80;;;;;;5075223;28;20454;-90
2021/10/06 12:57:36;;;;;;;6.07;4.20;;;14.00;85.70;;;;;;5078693;28;20456;-88
2021/10/06 13:00:16;;;;;;;4.83;3.57;;;14.10;87.50;;;;;;5094133;28;20484;-91
2021/10/06 13:02:43;;;;;;;8.80;3.90;;;14.00;84.90;;;;;;5093442;28;20543;-89
2021/10/06 13:05:28;;;;;;;4.80;3.47;;;14.10;85.70;;;;;;5086273;28;20831;-90
2021/10/06 13:07:56;;;;;;;4.57;3.60;;;14.10;84.50;;;;;;5072136;28;20478;-91
2021/10/06 13:10:24;;;;;;;7.00;5.00;;;14.10;84.40;;;;;;5074430;28;20455;-86
2021/10/06 13:12:51;;;;;;;8.17;4.00;;;13.80;83.70;;;;;;5074902;28;20870;-91
2021/10/06 13:15:18;;;;;;;5.17;4.63;;;13.60;86.40;;;;;;5073570;28;20518;-91
2021/10/06 13:17:45;;;;;;;7.23;5.70;;;13.60;91.60;;;;;;5074665;28;20545;-91
2021/10/06 13:20:13;;;;;;;9.23;6.43;;;13.50;92.50;;;;;;5074904;28;20504;-90
2021/10/06 13:22:41;;;;;;;8.57;7.70;;;13.40;94.40;;;;;;5074574;28;20478;-90
2021/10/06 13:25:09;;;;;;;6.80;6.20;;;13.20;95.70;;;;;;5074187;28;20538;-90
2021/10/06 13:27:36;;;;;;;13.13;9.07;;;13.00;95.30;;;;;;5074364;28;20486;-89
2021/10/06 13:30:03;;;;;;;7.77;7.03;;;13.00;96.90;;;;;;5072909;28;20461;-88
2021/10/06 13:32:31;;;;;;;8.10;7.37;;;13.00;96.40;;;;;;5073409;28;20458;-90
2021/10/06 13:34:58;;;;;;;11.97;7.77;;;13.10;96.40;;;;;;5074228;28;20461;-91
2021/10/06 13:37:25;;;;;;;10.37;6.93;;;13.50;95.20;;;;;;5074041;28;20542;-91
2021/10/06 13:39:53;;;;;;;7.83;6.53;;;13.80;92.50;;;;;;5073694;28;20521;-90
2021/10/06 13:42:20;;;;;;;8.07;5.17;;;14.20;90.10;;;;;;5073874;28;20490;-91
2021/10/06 13:44:47;;;;;;;8.20;4.73;;;14.30;88.50;;;;;;5072852;28;20493;-90
2021/10/06 13:47:29;;;;;;;5.00;3.87;;;14.40;86.50;;;;;;5075175;28;20529;-91
2021/10/06 13:49:57;;;;;;;6.00;3.87;;;14.80;83.50;;;;;;5074881;28;20478;-87
2021/10/06 13:52:26;;;;;;;4.73;3.33;;;15.20;78.30;;;;;;5076167;28;20459;-87
2021/10/06 13:54:54;;;;;;;9.63;2.80;;;15.30;76.20;;;;;;5094372;28;20804;-86
2021/10/06 13:57:27;;;;;;;7.40;2.50;;;15.20;74.80;;;;;;5094303;28;20533;-86
2021/10/06 13:59:54;;;;;;;4.50;2.40;;;15.00;73.60;;;;;;5092874;28;20451;-85
2021/10/06 14:02:25;;;;;;;7.97;3.27;;;14.90;76.00;;;;;;5093852;28;20541;-88
2021/10/06 14:04:56;;;;;;;5.50;2.87;;;14.50;77.00;;;;;;5094142;28;20462;-86
2021/10/06 14:07:23;;;;;;;5.30;2.80;;;14.40;78.10;;;;;;5093633;28;20516;-87
2021/10/06 14:09:53;;;;;;;4.60;2.50;;;14.20;79.20;;;;;;5093676;28;20473;-86
2021/10/06 14:12:28;;;;;;;4.50;2.90;;;14.00;81.70;;;;;;5093772;28;20453;-86
2021/10/06 14:14:55;;;;;;;5.93;3.47;;;13.90;84.00;;;;;;5092662;28;20452;-86
2021/10/06 14:17:25;;;;;;;6.20;3.90;;;13.80;87.40;;;;;;5093372;28;21036;-86
2021/10/06 14:19:52;;;;;;;5.90;5.30;;;13.70;89.50;;;;;;5093577;28;20458;-85
2021/10/06 14:22:19;;;;;;;5.93;4.87;;;13.60;91.60;;;;;;5093558;28;20836;-87
2021/10/06 14:24:55;;;;;;;5.97;5.37;;;13.30;92.30;;;;;;5093511;28;20485;-85
2021/10/06 14:27:23;;;;;;;8.30;6.50;;;13.10;94.10;;;;;;5093494;28;20449;-84
2021/10/06 14:29:57;;;;;;;7.30;6.60;;;13.20;94.20;;;;;;5092103;28;20481;-86
2021/10/06 14:32:24;;;;;;;9.27;8.43;;;13.10;96.90;;;;;;5093406;28;20457;-84
2021/10/06 14:34:53;;;;;;;11.17;7.70;;;13.10;99.90;;;;;;5093180;28;20971;-89
2021/10/06 14:37:19;;;;;;;10.43;9.53;;;13.00;98.40;;;;;;5093370;28;20874;-85
2021/10/06 14:39:47;;;;;;;13.33;10.67;;;12.80;99.90;;;;;;5086147;28;20470;-87
2021/10/06 14:42:14;;;;;;;10.63;9.57;;;12.80;99.90;;;;;;5072593;28;20457;-85
2021/10/06 14:44:42;;;;;;;14.07;13.10;;;12.80;99.90;;;;;;5072256;28;20451;-87
2021/10/06 14:47:11;;;;;;;16.80;15.30;;;12.80;99.90;;;;;;5072786;28;20458;-85
2021/10/06 14:49:38;;;;;;;13.83;12.93;;;12.90;99.90;;;;;;5072784;28;20929;-87
2021/10/06 14:52:05;;;;;;;12.20;11.07;;;13.10;99.90;;;;;;5072925;28;20462;-86
2021/10/06 14:54:32;;;;;;;9.70;8.70;;;13.20;99.90;;;;;;5037884;28;20847;-86
2021/10/06 14:57:05;;;;;;;11.43;10.50;;;13.30;99.00;;;;;;5072597;28;20467;-84
2021/10/06 14:59:32;;;;;;;9.27;8.47;;;13.30;99.90;;;;;;5071801;28;20780;-85
2021/10/06 15:02:04;;;;;;;14.00;8.80;;;13.20;99.00;;;;;;5072799;28;20541;-82
2021/10/06 15:04:32;;;;;;;9.30;7.53;;;13.40;98.40;;;;;;5072949;28;20451;-86
2021/10/06 15:06:59;;;;;;;9.23;8.10;;;13.40;96.00;;;;;;5072346;28;20537;-85
2021/10/06 15:09:30;;;;;;;8.70;8.00;;;13.60;97.00;;;;;;5072523;28;20928;-86
2021/10/06 15:11:57;;;;;;;9.27;7.80;;;13.70;97.20;;;;;;5072535;28;20454;-85
2021/10/06 15:14:24;;;;;;;8.77;7.73;;;13.60;96.80;;;;;;5071464;28;20497;-88
2021/10/06 15:16:51;;;;;;;6.63;6.00;;;13.50;97.40;;;;;;5073703;28;20448;-82
2021/10/06 15:19:22;;;;;;;8.13;7.27;;;13.40;95.40;;;;;;5072457;28;20455;-87
2021/10/06 15:21:49;;;;;;;9.57;6.97;;;13.20;96.50;;;;;;5072591;28;20507;-83
2021/10/06 15:24:16;;;;;;;8.83;7.97;;;13.10;97.00;;;;;;5072481;28;21040;-87
2021/10/06 15:26:43;;;;;;;12.37;10.83;;;13.00;97.80;;;;;;5072459;28;20501;-86
2021/10/06 15:29:10;;;;;;;9.30;8.40;;;13.00;99.10;;;;;;5071374;28;20510;-86
2021/10/06 15:31:37;;;;;;;9.23;8.37;;;13.00;99.40;;;;;;5072466;28;20458;-84
2021/10/06 15:34:04;;;;;;;10.37;9.47;;;12.90;99.90;;;;;;5072498;28;20533;-86
2021/10/06 15:36:33;;;;;;;10.93;9.87;;;12.70;99.90;;;;;;5072387;28;20497;-86
2021/10/06 15:39:00;;;;;;;15.00;13.50;;;12.70;99.90;;;;;;5072212;28;20466;-85
2021/10/06 15:41:27;;;;;;;16.40;15.20;;;12.60;99.90;;;;;;5072371;28;20490;-86
2021/10/06 15:43:54;;;;;;;20.37;18.43;;;12.50;99.90;;;;;;5072475;28;20450;-85
2021/10/06 15:46:23;;;;;;;22.40;21.03;;;12.30;99.90;;;;;;5071388;28;20458;-88
2021/10/06 15:48:50;;;;;;;39.90;37.80;;;12.20;99.90;;;;;;5072331;28;20988;-88
2021/10/06 15:51:17;;;;;;;50.50;48.30;;;12.10;99.90;;;;;;5072389;28;20549;-90
2021/10/06 15:53:45;;;;;;;76.13;72.87;;;11.90;99.90;;;;;;5084986;28;20878;-88
2021/10/06 15:56:12;;;;;;;112.47;107.97;;;11.80;99.90;;;;;;5095605;28;20453;-89
2021/10/06 15:58:49;;;;;;;139.50;133.60;;;11.80;99.90;;;;;;5090187;28;20486;-87
2021/10/06 16:01:16;;;;;;;174.83;167.73;;;11.70;99.90;;;;;;5073925;28;20952;-87
2021/10/06 16:03:43;;;;;;;213.33;204.53;;;11.80;99.90;;;;;;5075939;28;20450;-89
2021/10/06 16:06:13;;;;;;;205.97;198.13;;;11.80;99.90;;;;;;5091131;28;20504;-88
2021/10/06 16:08:43;;;;;;;197.70;190.20;;;11.70;99.90;;;;;;5094838;28;20543;-88
2021/10/06 16:11:21;;;;;;;196.97;188.80;;;11.80;99.90;;;;;;5094788;28;20515;-90
2021/10/06 16:14:01;;;;;;;229.43;220.80;;;11.80;99.90;;;;;;5095171;28;20477;-88
2021/10/06 16:16:32;;;;;;;263.70;253.90;;;11.80;99.90;;;;;;5094522;28;20498;-90
2021/10/06 16:19:05;;;;;;;251.43;241.53;;;11.60;99.90;;;;;;5095096;28;20854;-89
2021/10/06 16:21:34;;;;;;;269.93;259.73;;;11.70;99.90;;;;;;5094706;28;20462;-89
2021/10/06 16:24:02;;;;;;;253.83;244.67;;;11.70;99.90;;;;;;5093978;28;20481;-87
2021/10/06 16:26:34;;;;;;;283.00;272.20;;;11.60;99.90;;;;;;5094356;28;20445;-87
2021/10/06 16:29:03;;;;;;;315.80;303.80;;;11.60;99.90;;;;;;5093931;28;20997;-87
2021/10/06 16:31:30;;;;;;;325.40;313.83;;;11.60;99.90;;;;;;5094474;28;21025;-86
2021/10/06 16:33:59;;;;;;;338.23;325.33;;;11.60;99.90;;;;;;5094182;28;20537;-86
2021/10/06 16:36:28;;;;;;;341.83;329.03;;;11.60;99.90;;;;;;5093907;28;20457;-89
2021/10/06 16:38:57;;;;;;;346.63;332.93;;;11.50;99.90;;;;;;5090833;28;20449;-83
2021/10/06 16:41:26;;;;;;;349.87;337.10;;;11.50;99.90;;;;;;5074213;28;20533;-84
2021/10/06 16:44:02;;;;;;;359.93;346.23;;;11.50;99.90;;;;;;5073933;28;20454;-89
2021/10/06 16:46:37;;;;;;;375.27;360.97;;;11.60;99.90;;;;;;5074113;28;20454;-86
2021/10/06 16:49:05;;;;;;;383.87;369.17;;;11.40;99.90;;;;;;5073613;28;20505;-91
2021/10/06 16:51:43;;;;;;;;;;;;;;;;;;;;;